CYRB

Resolute Bay Airport

Resolute Bay, Canada
METAR CYRB 191500Z 14013KT 2SM -SHSN BR OVC002 M00/M00 A2932 RMK FG4ST4 SLP937
Observed Flight Rules
Aug-19 @ 15:00 UTC (38 minutes ago) Instrument Flight Rules
Wind Visibility Clouds Conditions
140° at 13 knots 2 miles
  • Overcast at 200' AGL
  • Light Snow
  • Mist
Temperatures Readings
Current 0°C / 32°F
Dewpoint 0°C / 32°F
Humidity 100%
Altimeter 29.32" Hg
Pressure 993.7 hPa
Elevation 67
METAR CYRB 191500Z 14013KT 2SM -SHSN BR OVC002 M00/M00 A2932 RMK FG4ST4 SLP937
Observed Flight Rules
Aug-19 @ 15:00 UTC
(38 minutes ago)
LIFR
Wind Visibility
140° at 13 knots 2 miles
Clouds
  • Overcast at 200' AGL
Conditions
  • Light Snow
  • Mist
Temperature Dewpoint
0°C / 32°F 0°C / 32°F
Humidity Altimeter Pressure
100% 29.32" Hg 993.7 hPa